Terminal Aerodrome Forecast
Issued by NWS

Current Version | Previous Version | Graphics & Text | Print | Product List | Glossary On
Versions: 1 2 3 4 5 6 7 8 9 10 11 12 13 14 15 16 17 18 19 20 21 22 23 24 25 26 27 28 29 30 31 32 33 34 35 36 37 38 39 40 41 42 43 44 45 46 47
000
FTUS41 KRNK 230052 AAA
TAFLWB
TAF AMD
KLWB 230052Z 2301/2324 00000KT P6SM OVC035
      TEMPO 2302/2306 5SM BR BKN025
     FM230600 00000KT 2SM BR BKN007
     FM230900 00000KT 1/2SM FG OVC004
     FM231500 00000KT P6SM OVC015
     FM231800 21005KT P6SM VCSH BKN040=

USA.gov is the U.S. government's official web portal to all federal, state and local government web resources and services.